sensor_id;sensor_type;location;lat;lon;timestamp;pressure;altitude;pressure_sealevel;temperature
47484;BMP280;54076;50.322;18.650;2024-03-08T00:04:44;99477.06;;;3.86
47484;BMP280;54076;50.322;18.650;2024-03-08T00:09:45;99479.15;;;3.56
47484;BMP280;54076;50.322;18.650;2024-03-08T00:14:46;99484.89;;;3.64
47484;BMP280;54076;50.322;18.650;2024-03-08T00:19:51;99483.41;;;3.69
47484;BMP280;54076;50.322;18.650;2024-03-08T00:24:52;99483.02;;;3.63
47484;BMP280;54076;50.322;18.650;2024-03-08T00:29:53;99478.27;;;3.49
47484;BMP280;54076;50.322;18.650;2024-03-08T00:34:54;99472.47;;;3.72
47484;BMP280;54076;50.322;18.650;2024-03-08T00:39:55;99470.92;;;3.52
47484;BMP280;54076;50.322;18.650;2024-03-08T00:44:56;99471.97;;;3.55
47484;BMP280;54076;50.322;18.650;2024-03-08T00:49:58;99467.38;;;3.38
47484;BMP280;54076;50.322;18.650;2024-03-08T00:54:59;99462.08;;;3.43
47484;BMP280;54076;50.322;18.650;2024-03-08T01:00:03;99457.42;;;3.32
47484;BMP280;54076;50.322;18.650;2024-03-08T01:05:10;99453.45;;;3.39
47484;BMP280;54076;50.322;18.650;2024-03-08T01:10:11;99446.80;;;3.57
47484;BMP280;54076;50.322;18.650;2024-03-08T01:15:12;99445.56;;;3.54
47484;BMP280;54076;50.322;18.650;2024-03-08T01:20:13;99440.75;;;3.19
47484;BMP280;54076;50.322;18.650;2024-03-08T01:25:14;99436.09;;;3.30
47484;BMP280;54076;50.322;18.650;2024-03-08T01:30:15;99429.41;;;3.21
47484;BMP280;54076;50.322;18.650;2024-03-08T01:35:18;99426.20;;;3.18
47484;BMP280;54076;50.322;18.650;2024-03-08T01:40:19;99423.06;;;3.25
47484;BMP280;54076;50.322;18.650;2024-03-08T01:45:20;99422.05;;;3.32
47484;BMP280;54076;50.322;18.650;2024-03-08T01:50:21;99410.45;;;3.29
47484;BMP280;54076;50.322;18.650;2024-03-08T01:55:22;99408.88;;;3.29
47484;BMP280;54076;50.322;18.650;2024-03-08T02:00:23;99411.60;;;3.29
47484;BMP280;54076;50.322;18.650;2024-03-08T02:05:27;99409.17;;;3.24
47484;BMP280;54076;50.322;18.650;2024-03-08T02:10:28;99413.32;;;3.13
47484;BMP280;54076;50.322;18.650;2024-03-08T02:15:55;99410.93;;;3.14
47484;BMP280;54076;50.322;18.650;2024-03-08T02:21:01;99402.23;;;3.30
47484;BMP280;54076;50.322;18.650;2024-03-08T02:26:08;99396.08;;;3.21
47484;BMP280;54076;50.322;18.650;2024-03-08T02:31:09;99392.23;;;3.17
47484;BMP280;54076;50.322;18.650;2024-03-08T02:36:11;99391.27;;;3.22
47484;BMP280;54076;50.322;18.650;2024-03-08T02:41:13;99390.52;;;3.16
47484;BMP280;54076;50.322;18.650;2024-03-08T02:46:14;99390.21;;;3.06
47484;BMP280;54076;50.322;18.650;2024-03-08T02:51:16;99390.12;;;3.14
47484;BMP280;54076;50.322;18.650;2024-03-08T02:56:17;99390.04;;;3.10
47484;BMP280;54076;50.322;18.650;2024-03-08T03:01:18;99389.84;;;3.11
47484;BMP280;54076;50.322;18.650;2024-03-08T03:06:27;99387.21;;;3.17
47484;BMP280;54076;50.322;18.650;2024-03-08T03:11:28;99380.94;;;3.14
47484;BMP280;54076;50.322;18.650;2024-03-08T03:16:29;99384.38;;;3.10
47484;BMP280;54076;50.322;18.650;2024-03-08T03:21:33;99382.62;;;3.11
47484;BMP280;54076;50.322;18.650;2024-03-08T03:26:37;99375.94;;;2.85
47484;BMP280;54076;50.322;18.650;2024-03-08T03:31:39;99381.42;;;3.10
47484;BMP280;54076;50.322;18.650;2024-03-08T03:36:41;99381.68;;;2.98
47484;BMP280;54076;50.322;18.650;2024-03-08T03:41:43;99384.54;;;3.03
47484;BMP280;54076;50.322;18.650;2024-03-08T03:46:47;99382.09;;;2.86
47484;BMP280;54076;50.322;18.650;2024-03-08T03:51:48;99378.44;;;3.01
47484;BMP280;54076;50.322;18.650;2024-03-08T03:56:52;99379.47;;;2.92
47484;BMP280;54076;50.322;18.650;2024-03-08T04:01:54;99375.70;;;2.82
47484;BMP280;54076;50.322;18.650;2024-03-08T04:06:55;99376.00;;;2.98
47484;BMP280;54076;50.322;18.650;2024-03-08T04:11:56;99370.41;;;2.94
47484;BMP280;54076;50.322;18.650;2024-03-08T04:16:57;99375.04;;;3.01
47484;BMP280;54076;50.322;18.650;2024-03-08T04:21:59;99368.19;;;3.03
47484;BMP280;54076;50.322;18.650;2024-03-08T04:27:01;99365.45;;;2.83
47484;BMP280;54076;50.322;18.650;2024-03-08T04:32:04;99368.48;;;2.59
47484;BMP280;54076;50.322;18.650;2024-03-08T04:37:05;99372.83;;;2.75
47484;BMP280;54076;50.322;18.650;2024-03-08T04:42:07;99373.73;;;2.71
47484;BMP280;54076;50.322;18.650;2024-03-08T04:47:11;99377.20;;;2.79
47484;BMP280;54076;50.322;18.650;2024-03-08T04:52:12;99377.73;;;2.81
47484;BMP280;54076;50.322;18.650;2024-03-08T04:57:13;99376.40;;;2.89
47484;BMP280;54076;50.322;18.650;2024-03-08T05:02:14;99376.70;;;2.91
47484;BMP280;54076;50.322;18.650;2024-03-08T05:07:15;99380.21;;;2.86
47484;BMP280;54076;50.322;18.650;2024-03-08T05:12:16;99377.02;;;2.81
47484;BMP280;54076;50.322;18.650;2024-03-08T05:17:17;99377.55;;;2.92
47484;BMP280;54076;50.322;18.650;2024-03-08T05:22:18;99377.77;;;2.83
47484;BMP280;54076;50.322;18.650;2024-03-08T05:27:19;99381.21;;;2.66
47484;BMP280;54076;50.322;18.650;2024-03-08T05:32:20;99380.17;;;2.86
47484;BMP280;54076;50.322;18.650;2024-03-08T05:37:21;99385.80;;;2.88
47484;BMP280;54076;50.322;18.650;2024-03-08T05:42:22;99383.98;;;2.89
47484;BMP280;54076;50.322;18.650;2024-03-08T05:47:23;99391.69;;;2.93
47484;BMP280;54076;50.322;18.650;2024-03-08T05:52:24;99393.77;;;2.88
47484;BMP280;54076;50.322;18.650;2024-03-08T05:57:26;99398.63;;;3.04
47484;BMP280;54076;50.322;18.650;2024-03-08T06:02:27;99402.67;;;2.97
47484;BMP280;54076;50.322;18.650;2024-03-08T06:07:28;99399.45;;;2.96
47484;BMP280;54076;50.322;18.650;2024-03-08T06:12:30;99401.90;;;3.07
47484;BMP280;54076;50.322;18.650;2024-03-08T06:17:35;99401.57;;;3.20
47484;BMP280;54076;50.322;18.650;2024-03-08T06:22:41;99402.04;;;3.08
47484;BMP280;54076;50.322;18.650;2024-03-08T06:27:43;99400.67;;;3.16
47484;BMP280;54076;50.322;18.650;2024-03-08T06:32:44;99395.27;;;3.60
47484;BMP280;54076;50.322;18.650;2024-03-08T06:37:44;99400.05;;;3.91
47484;BMP280;54076;50.322;18.650;2024-03-08T06:42:45;99395.98;;;4.14
47484;BMP280;54076;50.322;18.650;2024-03-08T06:47:47;99396.40;;;4.31
47484;BMP280;54076;50.322;18.650;2024-03-08T06:52:48;99392.36;;;4.11
47484;BMP280;54076;50.322;18.650;2024-03-08T06:57:54;99404.55;;;4.49
47484;BMP280;54076;50.322;18.650;2024-03-08T07:02:55;99401.40;;;4.65
47484;BMP280;54076;50.322;18.650;2024-03-08T07:07:56;99397.19;;;4.68
47484;BMP280;54076;50.322;18.650;2024-03-08T07:12:57;99395.82;;;4.78
47484;BMP280;54076;50.322;18.650;2024-03-08T07:17:57;99396.76;;;4.83
47484;BMP280;54076;50.322;18.650;2024-03-08T07:23:00;99398.58;;;5.02
47484;BMP280;54076;50.322;18.650;2024-03-08T07:28:01;99395.23;;;5.11
47484;BMP280;54076;50.322;18.650;2024-03-08T07:33:02;99393.49;;;5.04
47484;BMP280;54076;50.322;18.650;2024-03-08T07:38:07;99399.18;;;5.31
47484;BMP280;54076;50.322;18.650;2024-03-08T07:43:08;99395.80;;;5.59
47484;BMP280;54076;50.322;18.650;2024-03-08T07:48:09;99388.70;;;5.69
47484;BMP280;54076;50.322;18.650;2024-03-08T07:53:10;99386.83;;;5.60
47484;BMP280;54076;50.322;18.650;2024-03-08T07:58:12;99389.11;;;5.48
47484;BMP280;54076;50.322;18.650;2024-03-08T08:03:14;99388.34;;;5.45
47484;BMP280;54076;50.322;18.650;2024-03-08T08:08:15;99396.16;;;5.83
47484;BMP280;54076;50.322;18.650;2024-03-08T08:13:15;99399.48;;;5.37
47484;BMP280;54076;50.322;18.650;2024-03-08T08:18:17;99405.33;;;5.80
47484;BMP280;54076;50.322;18.650;2024-03-08T08:23:19;99406.23;;;5.70
47484;BMP280;54076;50.322;18.650;2024-03-08T08:28:20;99410.98;;;5.93
47484;BMP280;54076;50.322;18.650;2024-03-08T08:33:21;99408.29;;;5.76
47484;BMP280;54076;50.322;18.650;2024-03-08T08:38:22;99411.23;;;5.35
47484;BMP280;54076;50.322;18.650;2024-03-08T08:43:23;99405.62;;;5.88
47484;BMP280;54076;50.322;18.650;2024-03-08T08:48:26;99402.08;;;5.90
47484;BMP280;54076;50.322;18.650;2024-03-08T08:53:28;99403.20;;;5.69
47484;BMP280;54076;50.322;18.650;2024-03-08T08:58:30;99400.28;;;5.63
47484;BMP280;54076;50.322;18.650;2024-03-08T09:03:30;99399.16;;;5.90
47484;BMP280;54076;50.322;18.650;2024-03-08T09:08:31;99396.13;;;6.23
47484;BMP280;54076;50.322;18.650;2024-03-08T09:13:32;99389.48;;;6.33
47484;BMP280;54076;50.322;18.650;2024-03-08T09:18:34;99385.16;;;6.23
47484;BMP280;54076;50.322;18.650;2024-03-08T09:23:36;99389.98;;;6.46
47484;BMP280;54076;50.322;18.650;2024-03-08T09:28:37;99384.69;;;6.76
47484;BMP280;54076;50.322;18.650;2024-03-08T09:33:39;99379.78;;;6.18
47484;BMP280;54076;50.322;18.650;2024-03-08T09:38:40;99375.14;;;5.82
47484;BMP280;54076;50.322;18.650;2024-03-08T09:43:41;99378.73;;;6.45
47484;BMP280;54076;50.322;18.650;2024-03-08T09:48:42;99376.92;;;6.03
47484;BMP280;54076;50.322;18.650;2024-03-08T09:53:43;99379.69;;;5.93
47484;BMP280;54076;50.322;18.650;2024-03-08T09:58:44;99376.98;;;6.91
47484;BMP280;54076;50.322;18.650;2024-03-08T10:04:14;99374.20;;;7.13
47484;BMP280;54076;50.322;18.650;2024-03-08T10:09:17;99370.41;;;6.92
47484;BMP280;54076;50.322;18.650;2024-03-08T10:14:19;99368.23;;;6.91
47484;BMP280;54076;50.322;18.650;2024-03-08T10:19:20;99367.06;;;7.34
47484;BMP280;54076;50.322;18.650;2024-03-08T10:24:23;99365.23;;;7.36
47484;BMP280;54076;50.322;18.650;2024-03-08T10:29:27;99365.88;;;7.71
47484;BMP280;54076;50.322;18.650;2024-03-08T10:34:29;99363.21;;;7.31
47484;BMP280;54076;50.322;18.650;2024-03-08T10:39:35;99364.39;;;7.91
47484;BMP280;54076;50.322;18.650;2024-03-08T10:45:01;99366.91;;;8.25
47484;BMP280;54076;50.322;18.650;2024-03-08T10:50:20;99358.52;;;8.34
47484;BMP280;54076;50.322;18.650;2024-03-08T10:55:27;99354.69;;;8.43
47484;BMP280;54076;50.322;18.650;2024-03-08T11:00:28;99347.79;;;9.78
47484;BMP280;54076;50.322;18.650;2024-03-08T11:05:40;99343.82;;;8.97
47484;BMP280;54076;50.322;18.650;2024-03-08T11:10:52;99342.45;;;10.55
47484;BMP280;54076;50.322;18.650;2024-03-08T11:15:55;99335.56;;;11.11
47484;BMP280;54076;50.322;18.650;2024-03-08T11:20:57;99328.92;;;12.90
47484;BMP280;54076;50.322;18.650;2024-03-08T11:25:58;99325.27;;;12.46
47484;BMP280;54076;50.322;18.650;2024-03-08T11:41:26;99314.34;;;13.47
47484;BMP280;54076;50.322;18.650;2024-03-08T11:46:27;99304.20;;;14.42
47484;BMP280;54076;50.322;18.650;2024-03-08T11:51:28;99299.81;;;14.32
47484;BMP280;54076;50.322;18.650;2024-03-08T11:56:30;99290.02;;;14.30
47484;BMP280;54076;50.322;18.650;2024-03-08T12:01:32;99279.63;;;13.58
47484;BMP280;54076;50.322;18.650;2024-03-08T12:06:40;99281.56;;;14.67
47484;BMP280;54076;50.322;18.650;2024-03-08T12:11:41;99272.06;;;14.93
47484;BMP280;54076;50.322;18.650;2024-03-08T12:16:43;99266.16;;;15.54
47484;BMP280;54076;50.322;18.650;2024-03-08T12:21:44;99262.66;;;15.92
47484;BMP280;54076;50.322;18.650;2024-03-08T12:26:49;99261.38;;;15.39
47484;BMP280;54076;50.322;18.650;2024-03-08T12:31:58;99259.00;;;15.31
47484;BMP280;54076;50.322;18.650;2024-03-08T12:37:01;99252.13;;;15.42
47484;BMP280;54076;50.322;18.650;2024-03-08T12:42:02;99246.68;;;16.39
47484;BMP280;54076;50.322;18.650;2024-03-08T12:47:04;99236.27;;;16.18
47484;BMP280;54076;50.322;18.650;2024-03-08T12:52:10;99228.36;;;16.07
47484;BMP280;54076;50.322;18.650;2024-03-08T12:57:11;99221.70;;;15.34
47484;BMP280;54076;50.322;18.650;2024-03-08T13:02:11;99217.08;;;15.62
47484;BMP280;54076;50.322;18.650;2024-03-08T13:07:12;99210.91;;;15.74
47484;BMP280;54076;50.322;18.650;2024-03-08T13:12:17;99210.17;;;15.99
47484;BMP280;54076;50.322;18.650;2024-03-08T13:17:18;99200.80;;;15.49
47484;BMP280;54076;50.322;18.650;2024-03-08T13:22:19;99189.73;;;15.72
47484;BMP280;54076;50.322;18.650;2024-03-08T13:27:23;99191.06;;;16.17
47484;BMP280;54076;50.322;18.650;2024-03-08T13:32:25;99180.45;;;15.06
47484;BMP280;54076;50.322;18.650;2024-03-08T13:37:27;99181.11;;;14.98
47484;BMP280;54076;50.322;18.650;2024-03-08T13:42:28;99173.38;;;14.51
47484;BMP280;54076;50.322;18.650;2024-03-08T13:47:29;99170.30;;;14.56
47484;BMP280;54076;50.322;18.650;2024-03-08T13:52:31;99165.38;;;14.20
47484;BMP280;54076;50.322;18.650;2024-03-08T13:57:32;99167.09;;;14.09
47484;BMP280;54076;50.322;18.650;2024-03-08T14:02:33;99160.23;;;13.78
47484;BMP280;54076;50.322;18.650;2024-03-08T14:07:37;99152.85;;;13.22
47484;BMP280;54076;50.322;18.650;2024-03-08T14:12:38;99146.59;;;13.15
47484;BMP280;54076;50.322;18.650;2024-03-08T14:17:40;99145.33;;;12.58
47484;BMP280;54076;50.322;18.650;2024-03-08T14:22:40;99138.08;;;12.66
47484;BMP280;54076;50.322;18.650;2024-03-08T14:27:43;99138.95;;;12.85
47484;BMP280;54076;50.322;18.650;2024-03-08T14:32:44;99135.01;;;12.64
47484;BMP280;54076;50.322;18.650;2024-03-08T14:37:45;99136.25;;;12.17
47484;BMP280;54076;50.322;18.650;2024-03-08T14:42:46;99132.05;;;12.04
47484;BMP280;54076;50.322;18.650;2024-03-08T14:47:50;99130.17;;;11.94
47484;BMP280;54076;50.322;18.650;2024-03-08T14:52:52;99124.20;;;11.83
47484;BMP280;54076;50.322;18.650;2024-03-08T14:57:53;99123.36;;;11.38
47484;BMP280;54076;50.322;18.650;2024-03-08T15:02:54;99124.06;;;11.34
47484;BMP280;54076;50.322;18.650;2024-03-08T15:07:55;99121.39;;;10.98
47484;BMP280;54076;50.322;18.650;2024-03-08T15:12:56;99116.41;;;10.76
47484;BMP280;54076;50.322;18.650;2024-03-08T15:17:59;99116.09;;;10.68
47484;BMP280;54076;50.322;18.650;2024-03-08T15:23:00;99113.98;;;10.58
47484;BMP280;54076;50.322;18.650;2024-03-08T15:28:01;99107.27;;;10.34
47484;BMP280;54076;50.322;18.650;2024-03-08T15:33:05;99107.16;;;10.51
47484;BMP280;54076;50.322;18.650;2024-03-08T15:38:10;99104.75;;;10.28
47484;BMP280;54076;50.322;18.650;2024-03-08T15:43:11;99101.98;;;10.41
47484;BMP280;54076;50.322;18.650;2024-03-08T15:48:12;99100.98;;;10.20
47484;BMP280;54076;50.322;18.650;2024-03-08T15:53:13;99100.59;;;9.94
47484;BMP280;54076;50.322;18.650;2024-03-08T15:58:15;99100.20;;;9.87
47484;BMP280;54076;50.322;18.650;2024-03-08T16:03:16;99097.98;;;9.70
47484;BMP280;54076;50.322;18.650;2024-03-08T16:08:18;99094.79;;;9.50
47484;BMP280;54076;50.322;18.650;2024-03-08T16:13:26;99095.00;;;9.48
47484;BMP280;54076;50.322;18.650;2024-03-08T16:18:27;99096.55;;;9.31
47484;BMP280;54076;50.322;18.650;2024-03-08T16:23:28;99097.50;;;9.13
47484;BMP280;54076;50.322;18.650;2024-03-08T16:28:29;99100.21;;;8.92
47484;BMP280;54076;50.322;18.650;2024-03-08T16:33:39;99096.17;;;8.81
47484;BMP280;54076;50.322;18.650;2024-03-08T16:38:40;99096.55;;;8.76
47484;BMP280;54076;50.322;18.650;2024-03-08T16:43:44;99096.55;;;8.53
47484;BMP280;54076;50.322;18.650;2024-03-08T16:48:45;99092.64;;;8.35
47484;BMP280;54076;50.322;18.650;2024-03-08T16:53:46;99096.73;;;8.22
47484;BMP280;54076;50.322;18.650;2024-03-08T16:58:48;99096.52;;;8.06
47484;BMP280;54076;50.322;18.650;2024-03-08T17:03:49;99103.48;;;7.99
47484;BMP280;54076;50.322;18.650;2024-03-08T17:08:50;99110.02;;;7.80
47484;BMP280;54076;50.322;18.650;2024-03-08T17:13:52;99113.66;;;7.62
47484;BMP280;54076;50.322;18.650;2024-03-08T17:18:54;99111.89;;;7.48
47484;BMP280;54076;50.322;18.650;2024-03-08T17:23:57;99115.71;;;7.44
47484;BMP280;54076;50.322;18.650;2024-03-08T17:28:59;99117.30;;;7.45
47484;BMP280;54076;50.322;18.650;2024-03-08T17:34:00;99116.98;;;7.34
47484;BMP280;54076;50.322;18.650;2024-03-08T17:39:01;99115.29;;;7.31
47484;BMP280;54076;50.322;18.650;2024-03-08T17:44:03;99114.84;;;7.20
47484;BMP280;54076;50.322;18.650;2024-03-08T17:49:10;99118.24;;;7.02
47484;BMP280;54076;50.322;18.650;2024-03-08T17:54:12;99118.86;;;6.93
47484;BMP280;54076;50.322;18.650;2024-03-08T17:59:14;99119.02;;;6.92
47484;BMP280;54076;50.322;18.650;2024-03-08T18:04:15;99119.70;;;6.82
47484;BMP280;54076;50.322;18.650;2024-03-08T18:09:16;99117.61;;;6.90
47484;BMP280;54076;50.322;18.650;2024-03-08T18:14:17;99119.80;;;6.87
47484;BMP280;54076;50.322;18.650;2024-03-08T18:19:18;99115.94;;;6.73
47484;BMP280;54076;50.322;18.650;2024-03-08T18:24:20;99117.34;;;6.64
47484;BMP280;54076;50.322;18.650;2024-03-08T18:29:21;99112.00;;;6.49
47484;BMP280;54076;50.322;18.650;2024-03-08T18:34:22;99112.17;;;6.48
47484;BMP280;54076;50.322;18.650;2024-03-08T18:39:24;99111.48;;;6.56
47484;BMP280;54076;50.322;18.650;2024-03-08T18:44:27;99110.39;;;6.49
47484;BMP280;54076;50.322;18.650;2024-03-08T18:49:28;99108.85;;;6.47
47484;BMP280;54076;50.322;18.650;2024-03-08T18:54:30;99104.27;;;6.39
47484;BMP280;54076;50.322;18.650;2024-03-08T18:59:31;99105.53;;;6.43
47484;BMP280;54076;50.322;18.650;2024-03-08T19:04:31;99102.05;;;6.40
47484;BMP280;54076;50.322;18.650;2024-03-08T19:09:32;99105.27;;;6.30
47484;BMP280;54076;50.322;18.650;2024-03-08T19:14:34;99105.36;;;6.36
47484;BMP280;54076;50.322;18.650;2024-03-08T19:19:38;99100.04;;;6.20
47484;BMP280;54076;50.322;18.650;2024-03-08T19:24:40;99096.84;;;6.25
47484;BMP280;54076;50.322;18.650;2024-03-08T19:29:41;99090.73;;;6.22
47484;BMP280;54076;50.322;18.650;2024-03-08T19:34:42;99088.36;;;6.22
47484;BMP280;54076;50.322;18.650;2024-03-08T19:39:43;99082.60;;;6.05
47484;BMP280;54076;50.322;18.650;2024-03-08T19:44:45;99076.88;;;6.10
47484;BMP280;54076;50.322;18.650;2024-03-08T19:49:49;99073.59;;;6.14
47484;BMP280;54076;50.322;18.650;2024-03-08T19:54:50;99076.11;;;6.02
47484;BMP280;54076;50.322;18.650;2024-03-08T19:59:51;99069.92;;;6.02
47484;BMP280;54076;50.322;18.650;2024-03-08T20:04:53;99065.41;;;6.02
47484;BMP280;54076;50.322;18.650;2024-03-08T20:09:56;99060.41;;;5.84
47484;BMP280;54076;50.322;18.650;2024-03-08T20:14:57;99060.97;;;5.86
47484;BMP280;54076;50.322;18.650;2024-03-08T20:19:58;99064.73;;;5.81
47484;BMP280;54076;50.322;18.650;2024-03-08T20:25:01;99059.05;;;5.75
47484;BMP280;54076;50.322;18.650;2024-03-08T20:30:02;99056.17;;;5.74
47484;BMP280;54076;50.322;18.650;2024-03-08T20:35:03;99047.66;;;5.73
47484;BMP280;54076;50.322;18.650;2024-03-08T20:40:05;99045.33;;;5.77
47484;BMP280;54076;50.322;18.650;2024-03-08T20:45:07;99045.14;;;5.70
47484;BMP280;54076;50.322;18.650;2024-03-08T20:50:09;99049.92;;;5.75
47484;BMP280;54076;50.322;18.650;2024-03-08T20:55:13;99050.48;;;5.58
47484;BMP280;54076;50.322;18.650;2024-03-08T21:00:21;99050.20;;;5.57
47484;BMP280;54076;50.322;18.650;2024-03-08T21:05:42;99046.19;;;5.40
47484;BMP280;54076;50.322;18.650;2024-03-08T21:10:46;99041.77;;;5.48
47484;BMP280;54076;50.322;18.650;2024-03-08T21:15:47;99038.60;;;5.35
47484;BMP280;54076;50.322;18.650;2024-03-08T21:20:49;99031.54;;;5.31
47484;BMP280;54076;50.322;18.650;2024-03-08T21:25:50;99028.03;;;5.14
47484;BMP280;54076;50.322;18.650;2024-03-08T21:30:50;99022.85;;;5.14
47484;BMP280;54076;50.322;18.650;2024-03-08T21:35:53;99014.88;;;4.99
47484;BMP280;54076;50.322;18.650;2024-03-08T21:40:53;99016.40;;;5.07
47484;BMP280;54076;50.322;18.650;2024-03-08T21:45:54;99014.99;;;5.17
47484;BMP280;54076;50.322;18.650;2024-03-08T21:50:56;99007.66;;;5.09
47484;BMP280;54076;50.322;18.650;2024-03-08T21:55:57;99012.57;;;5.00
47484;BMP280;54076;50.322;18.650;2024-03-08T22:00:58;99005.58;;;5.12
47484;BMP280;54076;50.322;18.650;2024-03-08T22:05:59;99002.79;;;5.11
47484;BMP280;54076;50.322;18.650;2024-03-08T22:11:00;98999.69;;;4.98
47484;BMP280;54076;50.322;18.650;2024-03-08T22:16:01;98989.01;;;5.08
47484;BMP280;54076;50.322;18.650;2024-03-08T22:21:04;98984.95;;;5.03
47484;BMP280;54076;50.322;18.650;2024-03-08T22:26:05;98977.92;;;5.10
47484;BMP280;54076;50.322;18.650;2024-03-08T22:31:10;98977.59;;;5.14
47484;BMP280;54076;50.322;18.650;2024-03-08T22:36:11;98979.02;;;5.17
47484;BMP280;54076;50.322;18.650;2024-03-08T22:41:12;98977.60;;;5.09
47484;BMP280;54076;50.322;18.650;2024-03-08T22:46:14;98978.66;;;4.94
47484;BMP280;54076;50.322;18.650;2024-03-08T22:51:14;98969.58;;;4.93
47484;BMP280;54076;50.322;18.650;2024-03-08T22:56:17;98963.31;;;4.93
47484;BMP280;54076;50.322;18.650;2024-03-08T23:01:18;98961.35;;;4.84
47484;BMP280;54076;50.322;18.650;2024-03-08T23:06:19;98955.81;;;4.79
47484;BMP280;54076;50.322;18.650;2024-03-08T23:11:21;98955.01;;;4.71
47484;BMP280;54076;50.322;18.650;2024-03-08T23:16:26;98952.80;;;4.72
47484;BMP280;54076;50.322;18.650;2024-03-08T23:21:27;98952.59;;;4.68
47484;BMP280;54076;50.322;18.650;2024-03-08T23:26:28;98951.77;;;4.63
47484;BMP280;54076;50.322;18.650;2024-03-08T23:31:29;98951.27;;;4.56
47484;BMP280;54076;50.322;18.650;2024-03-08T23:36:33;98953.45;;;4.37
47484;BMP280;54076;50.322;18.650;2024-03-08T23:41:35;98951.64;;;4.33
47484;BMP280;54076;50.322;18.650;2024-03-08T23:46:39;98950.10;;;4.29
47484;BMP280;54076;50.322;18.650;2024-03-08T23:51:41;98956.48;;;4.33
47484;BMP280;54076;50.322;18.650;2024-03-08T23:56:42;98959.80;;;4.21
